Time;durP1;ratioP1;P1;durP2;ratioP2;P2;SDS_P1;SDS_P2;PMS_P1;PMS_P2;Temp;Humidity;BMP_temperature;BMP_pressure;BME280_temperature;BME280_humidity;BME280_pressure;Samples;Min_cycle;Max_cycle;Signal;HPM_P1;HPM_P2
2023/03/27 00:01:15;;;;;;;8.95;1.80;;;;;;;2.40;81.00;101337.69;5064802;28;20469;-76
2023/03/27 00:03:43;;;;;;;9.57;2.05;;;;;;;2.40;81.09;101342.03;5064906;28;20033;-75
2023/03/27 00:06:16;;;;;;;10.05;2.00;;;;;;;2.40;81.21;101344.66;5066109;28;20053;-75
2023/03/27 00:08:46;;;;;;;9.93;2.13;;;;;;;2.38;81.31;101338.53;5066187;28;20044;-75
2023/03/27 00:11:15;;;;;;;12.88;2.70;;;;;;;2.37;81.29;101344.59;5065660;28;20052;-75
2023/03/27 00:13:43;;;;;;;10.48;1.67;;;;;;;2.33;81.16;101344.59;5066759;28;20826;-75
2023/03/27 00:16:20;;;;;;;10.88;1.92;;;;;;;2.33;81.44;101354.09;5049931;28;20046;-75
2023/03/27 00:18:48;;;;;;;6.15;1.40;;;;;;;2.29;81.49;101353.19;5063138;28;20049;-78
2023/03/27 00:21:15;;;;;;;10.85;1.90;;;;;;;2.27;81.87;101354.03;5064708;28;20071;-77
2023/03/27 00:23:43;;;;;;;11.10;1.83;;;;;;;2.24;81.78;101356.59;5063623;28;20180;-78
2023/03/27 00:26:13;;;;;;;10.13;1.92;;;;;;;2.21;81.93;101360.03;5061774;28;20777;-77
2023/03/27 00:28:40;;;;;;;21.88;2.03;;;;;;;2.20;81.74;101368.69;5066004;28;20049;-77
2023/03/27 00:31:13;;;;;;;9.90;2.15;;;;;;;2.18;82.21;101365.19;5060235;28;20037;-77
2023/03/27 00:33:41;;;;;;;9.02;1.92;;;;;;;2.13;82.43;101372.94;5065422;28;20079;-77
2023/03/27 00:36:09;;;;;;;8.50;1.73;;;;;;;2.11;82.79;101382.44;5066018;28;20026;-77
2023/03/27 00:38:38;;;;;;;11.93;2.00;;;;;;;2.12;82.91;101379.00;5064931;28;20053;-77
2023/03/27 00:41:07;;;;;;;10.65;2.20;;;;;;;2.12;83.08;101383.34;5063350;28;20057;-78
2023/03/27 00:43:41;;;;;;;11.48;2.03;;;;;;;2.12;83.32;101388.53;5065725;28;20053;-77
2023/03/27 00:46:14;;;;;;;8.40;1.90;;;;;;;2.11;83.52;101390.25;5057760;28;20597;-77
2023/03/27 00:48:47;;;;;;;7.68;1.50;;;;;;;2.13;83.44;101398.97;5051491;28;21273;-77
2023/03/27 00:51:15;;;;;;;10.75;2.00;;;;;;;2.09;83.77;101391.94;5062669;28;20041;-77
2023/03/27 00:53:45;;;;;;;11.23;1.80;;;;;;;2.06;83.86;101397.13;5065229;28;20521;-78
2023/03/27 00:56:15;;;;;;;9.45;1.88;;;;;;;2.03;84.22;101404.03;5063121;28;20048;-79
2023/03/27 00:58:51;;;;;;;8.57;1.73;;;;;;;2.00;84.25;101410.03;5064537;28;20049;-79
2023/03/27 01:01:23;;;;;;;9.50;2.25;;;;;;;1.94;84.72;101408.22;5065289;28;20131;-78
2023/03/27 01:03:53;;;;;;;11.27;2.15;;;;;;;1.93;84.99;101408.22;5064978;28;20499;-81
2023/03/27 01:06:21;;;;;;;8.02;2.42;;;;;;;1.91;85.04;101412.50;5063367;28;20592;-80
2023/03/27 01:08:48;;;;;;;9.10;2.42;;;;;;;1.91;85.03;101405.59;5062315;28;20595;-81
2023/03/27 01:11:58;;;;;;;14.55;2.50;;;;;;;1.91;85.21;101416.00;5065458;28;20643;-80
2023/03/27 01:14:40;;;;;;;14.35;2.10;;;;;;;1.90;85.00;101413.34;5066890;28;20632;-81
2023/03/27 01:17:33;;;;;;;10.18;2.33;;;;;;;1.90;84.94;101410.75;5061975;28;20080;-82
2023/03/27 01:20:39;;;;;;;8.95;1.85;;;;;;;1.89;84.92;101415.09;5055455;28;20053;-82
2023/03/27 01:23:52;;;;;;;9.52;1.88;;;;;;;1.86;85.13;101420.25;5065890;28;20518;-82
2023/03/27 01:26:56;;;;;;;13.55;1.90;;;;;;;1.85;85.23;101424.56;5065783;28;20107;-81
2023/03/27 01:30:06;;;;;;;13.60;2.33;;;;;;;1.85;85.52;101434.97;5067700;28;20045;-82
2023/03/27 01:33:00;;;;;;;8.13;2.35;;;;;;;1.85;85.79;101434.09;5060588;28;20098;-81
2023/03/27 01:35:48;;;;;;;5.95;1.80;;;;;;;1.82;85.93;101440.13;5062135;28;20049;-78
2023/03/27 01:38:55;;;;;;;11.38;2.40;;;;;;;1.79;85.95;101444.41;5067023;28;20056;-78
2023/03/27 01:42:04;;;;;;;10.43;2.45;;;;;;;1.72;86.29;101451.22;5066904;28;20466;-79
2023/03/27 01:45:10;;;;;;;8.55;1.92;;;;;;;1.65;86.36;101459.78;5061485;28;20103;-78
2023/03/27 01:47:49;;;;;;;;;;;;;;;1.58;86.56;101457.94;5042986;28;20057;-79
2023/03/27 01:50:32;;;;;;;7.05;2.33;;;;;;;1.53;86.63;101452.63;5065041;28;19984;-78
2023/03/27 01:53:14;;;;;;;10.02;2.15;;;;;;;1.50;86.77;101458.66;5063666;28;20042;-77
2023/03/27 01:55:51;;;;;;;9.43;2.17;;;;;;;1.48;86.94;101460.34;5065928;28;20840;-77
2023/03/27 01:58:28;;;;;;;13.63;2.17;;;;;;;1.46;86.88;101468.97;5056506;28;20045;-76
2023/03/27 02:01:00;;;;;;;11.57;1.88;;;;;;;1.45;87.05;101462.94;5064835;28;20528;-77
2023/03/27 02:03:40;;;;;;;9.93;2.13;;;;;;;1.44;87.31;101468.97;5062530;28;20437;-77
2023/03/27 02:06:15;;;;;;;8.15;2.03;;;;;;;1.44;87.46;101468.06;5065563;28;20052;-77
2023/03/27 02:09:11;;;;;;;7.97;2.47;;;;;;;1.43;87.46;101474.13;5065124;28;20088;-77
2023/03/27 02:12:03;;;;;;;14.10;2.53;;;;;;;1.42;87.47;101480.19;5066825;28;20143;-77
2023/03/27 02:14:40;;;;;;;7.28;2.25;;;;;;;1.39;87.93;101486.19;5061667;28;20049;-77
2023/03/27 02:17:13;;;;;;;7.88;1.77;;;;;;;1.36;88.05;101489.63;5063113;28;20172;-77
2023/03/27 02:20:08;;;;;;;9.05;2.05;;;;;;;1.39;88.42;101492.28;5065454;28;20041;-77
2023/03/27 02:22:38;;;;;;;12.70;2.20;;;;;;;1.40;88.80;101490.53;5058079;28;20034;-78
2023/03/27 02:25:24;;;;;;;9.02;2.20;;;;;;;1.45;89.11;101496.72;5067347;28;20584;-75
2023/03/27 02:28:33;;;;;;;10.23;2.58;;;;;;;1.51;89.42;101504.59;5064314;28;20099;-75
2023/03/27 02:31:24;;;;;;;5.97;2.10;;;;;;;1.61;89.75;101507.34;5063094;28;20166;-77
2023/03/27 02:34:41;;;;;;;11.52;2.65;;;;;;;1.72;89.73;101508.41;5064072;28;20053;-81
2023/03/27 02:37:34;;;;;;;8.50;1.90;;;;;;;1.81;89.49;101510.31;5058782;28;20930;-82
2023/03/27 02:40:47;;;;;;;12.77;3.38;;;;;;;1.87;89.60;101518.19;5068473;28;20479;-82
2023/03/27 02:44:04;;;;;;;9.75;2.33;;;;;;;1.95;89.60;101523.53;5067725;28;20048;-77
2023/03/27 02:47:06;;;;;;;9.45;2.50;;;;;;;1.98;89.78;101527.06;5066095;28;20049;-81
2023/03/27 02:49:42;;;;;;;12.35;3.75;;;;;;;2.07;89.94;101535.84;5048273;28;20044;-80
2023/03/27 02:52:22;;;;;;;11.93;3.00;;;;;;;2.12;90.34;101527.28;5060845;28;20044;-80
2023/03/27 02:55:08;;;;;;;9.23;2.40;;;;;;;2.24;90.37;101530.91;5065441;28;20044;-78
2023/03/27 02:57:40;;;;;;;9.52;2.55;;;;;;;2.32;90.84;101535.41;5064331;28;20045;-79
2023/03/27 03:00:27;;;;;;;7.47;2.75;;;;;;;2.43;90.42;101537.28;5065127;28;20037;-78
2023/03/27 03:03:26;;;;;;;7.97;2.72;;;;;;;2.55;89.89;101546.97;5052997;28;20080;-78
2023/03/27 03:06:06;;;;;;;12.05;2.40;;;;;;;2.67;89.15;101539.34;5056786;28;20499;-78
2023/03/27 03:08:37;;;;;;;9.27;1.90;;;;;;;2.73;88.65;101544.63;5064494;28;20059;-77
2023/03/27 03:11:12;;;;;;;5.38;1.52;;;;;;;2.74;88.38;101540.31;5065918;28;20916;-78
2023/03/27 03:13:40;;;;;;;4.68;1.80;;;;;;;2.75;88.11;101537.72;5065063;28;20776;-78
2023/03/27 03:16:08;;;;;;;4.97;1.30;;;;;;;2.78;87.82;101540.38;5065276;28;21012;-78
2023/03/27 03:18:36;;;;;;;10.75;2.10;;;;;;;2.81;86.74;101547.34;5064180;28;20128;-78
2023/03/27 03:21:04;;;;;;;6.53;1.70;;;;;;;2.83;86.35;101549.97;5065448;28;20138;-78
2023/03/27 03:23:31;;;;;;;4.60;1.10;;;;;;;2.83;86.29;101558.66;5058417;28;20045;-77
2023/03/27 03:26:02;;;;;;;3.05;1.20;;;;;;;2.82;85.68;101559.50;5064243;28;20052;-80
2023/03/27 03:28:40;;;;;;;5.40;0.90;;;;;;;2.73;85.52;101568.06;5064487;28;20049;-77
2023/03/27 03:31:41;;;;;;;4.90;0.80;;;;;;;2.64;85.01;101576.66;5061705;28;20863;-77
2023/03/27 03:34:17;;;;;;;7.60;2.13;;;;;;;2.55;85.01;101571.28;5062465;28;20939;-77
2023/03/27 03:36:48;;;;;;;7.18;1.08;;;;;;;2.46;85.40;101585.06;5065451;28;20065;-76
2023/03/27 03:39:21;;;;;;;5.00;0.90;;;;;;;2.43;85.91;101582.38;5061627;28;20048;-77
2023/03/27 03:41:49;;;;;;;4.85;0.95;;;;;;;2.42;86.69;101592.78;5063708;28;20552;-77
2023/03/27 03:44:17;;;;;;;5.88;1.08;;;;;;;2.43;86.78;101597.16;5066921;28;20069;-77
2023/03/27 03:46:44;;;;;;;12.02;2.40;;;;;;;2.39;87.12;101596.19;5065390;28;20995;-77
2023/03/27 03:49:11;;;;;;;8.18;1.50;;;;;;;2.37;87.20;101600.53;5064511;28;20080;-77
2023/03/27 03:51:38;;;;;;;9.43;1.52;;;;;;;2.32;87.24;101602.16;5065009;28;20045;-75
2023/03/27 03:54:05;;;;;;;4.97;1.40;;;;;;;2.25;87.21;101609.00;5065507;28;20099;-75
2023/03/27 03:56:33;;;;;;;8.13;2.40;;;;;;;2.22;87.53;101613.28;5065042;28;20041;-77
2023/03/27 03:59:00;;;;;;;8.50;2.03;;;;;;;2.16;87.71;101614.94;5051291;28;20068;-75
2023/03/27 04:01:28;;;;;;;6.68;1.38;;;;;;;2.12;88.08;101626.13;5061065;28;20886;-78
2023/03/27 04:04:01;;;;;;;5.93;2.05;;;;;;;2.06;88.36;101625.13;5060196;28;20049;-79
2023/03/27 04:06:47;;;;;;;15.23;2.65;;;;;;;1.98;88.55;101632.84;5060224;28;20054;-78
2023/03/27 04:09:14;;;;;;;11.45;2.45;;;;;;;1.91;89.01;101631.84;5065846;28;20591;-78
2023/03/27 04:11:53;;;;;;;12.40;2.22;;;;;;;1.83;89.19;101636.03;5065140;28;20056;-78
2023/03/27 04:14:47;;;;;;;12.93;2.90;;;;;;;1.75;89.51;101630.69;5064403;28;20808;-78
2023/03/27 04:17:34;;;;;;;22.00;5.82;;;;;;;1.74;89.96;101646.22;5063592;28;20648;-78
2023/03/27 04:20:05;;;;;;;8.80;2.85;;;;;;;1.77;90.37;101654.09;5063773;28;20522;-78
2023/03/27 04:22:36;;;;;;;6.55;2.65;;;;;;;1.78;90.82;101653.25;5063724;28;20052;-78
2023/03/27 04:25:07;;;;;;;5.15;1.65;;;;;;;1.80;90.86;101660.22;5081149;28;20052;-78
2023/03/27 04:27:34;;;;;;;9.27;2.03;;;;;;;1.83;90.96;101664.63;5066125;28;20106;-78
2023/03/27 04:30:28;;;;;;;5.90;1.90;;;;;;;1.90;91.17;101665.59;5063429;28;20118;-80
2023/03/27 04:33:24;;;;;;;5.25;1.33;;;;;;;1.93;91.40;101670.88;5064769;28;20045;-77
2023/03/27 04:36:00;;;;;;;9.05;1.63;;;;;;;1.98;91.33;101671.84;5064430;28;20048;-79
2023/03/27 04:38:54;;;;;;;6.30;1.75;;;;;;;2.06;91.18;101687.56;5061229;28;20049;-78
2023/03/27 04:41:21;;;;;;;7.45;1.70;;;;;;;2.08;90.94;101681.56;5060825;28;20064;-77
2023/03/27 04:43:48;;;;;;;7.68;2.53;;;;;;;2.10;90.97;101700.66;5059378;28;20065;-78
2023/03/27 04:46:16;;;;;;;9.70;2.58;;;;;;;2.16;91.24;101698.19;5065127;28;20045;-78
2023/03/27 04:48:43;;;;;;;13.00;3.03;;;;;;;2.24;91.48;101710.44;5060622;28;20480;-79
2023/03/27 04:51:25;;;;;;;7.55;1.63;;;;;;;2.29;91.00;101701.03;5062787;28;20120;-79
2023/03/27 04:53:55;;;;;;;4.55;1.30;;;;;;;2.38;90.95;101713.28;5064227;28;20534;-80
2023/03/27 04:56:23;;;;;;;6.75;1.33;;;;;;;2.44;90.79;101716.03;5068032;28;20729;-80
2023/03/27 04:58:53;;;;;;;5.85;1.90;;;;;;;2.45;90.16;101717.75;5063120;28;20596;-81
2023/03/27 05:01:21;;;;;;;5.68;1.38;;;;;;;2.37;89.96;101720.25;5067506;28;20044;-78
2023/03/27 05:04:07;;;;;;;6.60;1.73;;;;;;;2.31;89.96;101723.63;5061462;28;20123;-79
2023/03/27 05:06:46;;;;;;;7.97;1.42;;;;;;;2.28;90.05;101735.69;5052837;28;20041;-79
2023/03/27 05:09:16;;;;;;;7.15;1.90;;;;;;;2.25;90.37;101731.28;5063963;28;20091;-79
2023/03/27 05:11:48;;;;;;;7.85;1.90;;;;;;;2.20;90.57;101735.53;5064720;28;20494;-79
2023/03/27 05:14:21;;;;;;;6.40;1.48;;;;;;;2.13;90.78;101746.69;5062177;28;20126;-78
2023/03/27 05:16:50;;;;;;;6.68;1.65;;;;;;;2.04;90.91;101739.56;5064218;28;20051;-78
2023/03/27 05:19:19;;;;;;;13.00;2.20;;;;;;;1.98;91.06;101745.53;5082191;28;20144;-78
2023/03/27 05:21:55;;;;;;;6.80;2.15;;;;;;;1.91;91.32;101737.56;5066909;28;20048;-78
2023/03/27 05:24:22;;;;;;;7.68;2.00;;;;;;;1.85;91.64;101739.22;5066884;28;20037;-78
2023/03/27 05:26:50;;;;;;;6.70;2.10;;;;;;;1.81;91.70;101742.59;5078869;28;20037;-79
2023/03/27 05:29:17;;;;;;;7.53;1.77;;;;;;;1.77;91.84;101740.78;5066961;28;20037;-79
2023/03/27 05:31:49;;;;;;;10.52;3.50;;;;;;;1.75;92.03;101749.38;5064326;28;20041;-79
2023/03/27 05:34:37;;;;;;;10.07;3.72;;;;;;;1.70;92.40;101750.19;5064835;28;20264;-78
2023/03/27 05:37:08;;;;;;;11.88;4.00;;;;;;;1.70;92.59;101754.50;5064980;28;20041;-78
2023/03/27 05:39:54;;;;;;;9.20;3.45;;;;;;;1.68;92.73;101763.97;5062777;28;20160;-78
2023/03/27 05:42:21;;;;;;;9.82;3.33;;;;;;;1.67;92.69;101759.66;5065763;28;20041;-78
2023/03/27 05:44:48;;;;;;;8.57;2.20;;;;;;;1.68;92.83;101763.97;5081340;28;20130;-78
2023/03/27 05:47:15;;;;;;;7.65;2.60;;;;;;;1.68;93.00;101769.16;5062461;28;20052;-78
2023/03/27 05:49:43;;;;;;;6.45;2.72;;;;;;;1.69;93.04;101776.13;5064198;28;20085;-79
2023/03/27 05:52:11;;;;;;;9.32;2.40;;;;;;;1.70;93.24;101770.97;5064650;28;20425;-79
2023/03/27 05:54:40;;;;;;;5.68;2.63;;;;;;;1.72;93.09;101775.34;5089140;28;20049;-79
2023/03/27 05:57:09;;;;;;;6.10;2.63;;;;;;;1.72;93.21;101773.59;5076822;28;20120;-78
2023/03/27 05:59:38;;;;;;;6.82;2.70;;;;;;;1.73;93.30;101766.69;5062260;28;20045;-79
2023/03/27 06:02:17;;;;;;;13.18;3.22;;;;;;;1.75;93.33;101773.69;5058332;28;20112;-79
2023/03/27 06:05:00;;;;;;;7.85;2.88;;;;;;;1.82;93.50;101772.09;5064124;28;20045;-79
2023/03/27 06:07:33;;;;;;;6.95;3.40;;;;;;;1.88;93.42;101777.41;5061586;28;20049;-79
2023/03/27 06:10:06;;;;;;;7.32;3.20;;;;;;;1.98;93.47;101781.09;5064656;28;20081;-77
2023/03/27 06:12:43;;;;;;;11.27;3.67;;;;;;;2.12;93.58;101787.44;5068145;28;20089;-79
2023/03/27 06:15:32;;;;;;;14.48;3.88;;;;;;;2.28;93.34;101791.22;5061879;28;20036;-79
2023/03/27 06:18:22;;;;;;;10.73;3.05;;;;;;;2.43;93.16;101797.56;5066372;28;20053;-80
2023/03/27 06:20:49;;;;;;;7.53;3.05;;;;;;;2.54;92.77;101800.34;5063885;28;20096;-78
2023/03/27 06:23:16;;;;;;;9.18;3.72;;;;;;;2.70;92.30;101806.72;5065859;28;20047;-79
2023/03/27 06:25:46;;;;;;;11.68;3.55;;;;;;;2.79;91.50;101799.06;5064314;28;20740;-79
2023/03/27 06:28:13;;;;;;;6.43;2.70;;;;;;;2.85;91.28;101808.72;5063502;28;20228;-78
2023/03/27 06:30:43;;;;;;;10.88;3.38;;;;;;;2.87;91.34;101810.47;5066971;28;20037;-78
2023/03/27 06:33:29;;;;;;;11.55;3.10;;;;;;;2.83;91.19;101813.91;5066814;28;20098;-78
2023/03/27 06:36:00;;;;;;;10.02;2.95;;;;;;;2.80;90.66;101816.44;5065484;28;20045;-77
2023/03/27 06:38:33;;;;;;;9.35;3.05;;;;;;;2.74;90.46;101826.75;5064375;28;20045;-79
2023/03/27 06:41:00;;;;;;;12.45;3.30;;;;;;;2.75;90.50;101821.56;5068352;28;20127;-79
2023/03/27 06:43:50;;;;;;;13.43;3.45;;;;;;;2.77;90.55;101818.97;5064223;28;20057;-82
2023/03/27 06:46:33;;;;;;;14.07;3.72;;;;;;;2.80;90.69;101822.50;5067287;28;20054;-82
2023/03/27 06:49:21;;;;;;;9.65;3.60;;;;;;;2.86;90.77;101824.34;5068862;28;20126;-82
2023/03/27 06:51:48;;;;;;;10.50;3.05;;;;;;;2.92;90.71;101824.47;5069369;28;20056;-81
2023/03/27 06:54:19;;;;;;;10.93;3.35;;;;;;;2.98;90.16;101830.63;5067848;28;20154;-82
2023/03/27 06:56:50;;;;;;;6.85;2.70;;;;;;;3.01;89.22;101834.16;5067703;28;20048;-81
2023/03/27 06:59:20;;;;;;;11.68;3.05;;;;;;;3.04;88.83;101834.22;5067048;28;20053;-81
2023/03/27 07:01:51;;;;;;;10.13;2.67;;;;;;;3.08;88.41;101840.34;5078209;28;20041;-82
2023/03/27 07:04:30;;;;;;;10.27;2.95;;;;;;;3.14;88.04;101839.56;5065639;28;20037;-82
2023/03/27 07:07:04;;;;;;;6.53;2.70;;;;;;;3.24;87.59;101847.59;5065869;28;20132;-81
2023/03/27 07:09:36;;;;;;;7.18;2.70;;;;;;;3.33;87.21;101854.66;5067529;28;20041;-81
2023/03/27 07:12:10;;;;;;;8.38;2.90;;;;;;;3.42;86.51;101857.41;5067639;28;20049;-81
2023/03/27 07:14:40;;;;;;;5.28;1.80;;;;;;;3.45;84.87;101856.59;5066800;28;20052;-81
2023/03/27 07:17:07;;;;;;;10.43;2.30;;;;;;;3.47;85.24;101854.88;5068498;28;20045;-81
2023/03/27 07:19:49;;;;;;;10.32;2.30;;;;;;;3.49;85.04;101854.91;5066421;28;20135;-82
2023/03/27 07:22:20;;;;;;;6.68;2.50;;;;;;;3.53;85.32;101860.19;5065907;28;20123;-82
2023/03/27 07:24:47;;;;;;;10.13;2.50;;;;;;;3.63;85.38;101871.63;5065730;28;20040;-82
2023/03/27 07:27:15;;;;;;;9.45;2.50;;;;;;;3.71;84.79;101871.75;5067111;28;20099;-82
2023/03/27 07:29:43;;;;;;;10.48;2.90;;;;;;;3.79;84.80;101877.94;5083042;28;20523;-82
2023/03/27 07:32:16;;;;;;;6.90;2.42;;;;;;;3.84;84.11;101885.84;5066731;28;20123;-81
2023/03/27 07:35:05;;;;;;;10.32;2.35;;;;;;;3.96;83.34;101888.63;5084165;28;20135;-82
2023/03/27 07:37:56;;;;;;;8.30;2.40;;;;;;;4.03;83.51;101890.47;5067507;28;20048;-82
2023/03/27 07:40:35;;;;;;;10.82;2.45;;;;;;;4.16;81.91;101896.75;5067429;28;20049;-81
2023/03/27 07:43:26;;;;;;;6.75;2.08;;;;;;;4.19;81.82;101901.97;5075233;28;20057;-81
2023/03/27 07:45:54;;;;;;;11.80;2.80;;;;;;;4.18;81.54;101901.97;5066242;28;20151;-81
2023/03/27 07:48:23;;;;;;;7.55;2.13;;;;;;;4.14;81.34;101901.06;5064617;28;20516;-81
2023/03/27 07:50:51;;;;;;;15.55;2.65;;;;;;;4.20;81.55;101897.66;5067115;28;20076;-82
2023/03/27 07:53:26;;;;;;;7.15;2.38;;;;;;;4.24;82.17;101901.19;5065642;28;20041;-81
2023/03/27 07:56:25;;;;;;;8.43;2.33;;;;;;;4.38;81.19;101902.22;5068269;28;20049;-81
2023/03/27 07:59:25;;;;;;;6.22;2.22;;;;;;;4.51;81.29;101898.91;5066541;28;20056;-82
2023/03/27 08:01:54;;;;;;;9.80;2.20;;;;;;;4.67;81.16;101896.47;5066952;28;20084;-82
2023/03/27 08:04:26;;;;;;;9.10;1.95;;;;;;;4.82;78.99;101906.22;5085082;28;20048;-81
2023/03/27 08:07:06;;;;;;;9.40;2.03;;;;;;;4.96;77.85;101902.00;5066077;28;20469;-81
2023/03/27 08:09:36;;;;;;;11.80;1.92;;;;;;;5.10;75.45;101906.50;5067061;28;20063;-81
2023/03/27 08:12:06;;;;;;;9.77;1.60;;;;;;;5.13;75.65;101901.31;5066204;28;20099;-82
2023/03/27 08:14:38;;;;;;;8.07;1.80;;;;;;;5.20;73.22;101913.56;5066072;28;20259;-81
2023/03/27 08:17:15;;;;;;;9.20;1.60;;;;;;;5.23;72.33;101907.47;5066487;28;20123;-81
2023/03/27 08:19:47;;;;;;;7.22;1.67;;;;;;;5.27;73.20;101912.75;5068679;28;20064;-81
2023/03/27 08:22:15;;;;;;;6.55;1.65;;;;;;;5.35;72.55;101930.22;5069342;28;20128;-79
2023/03/27 08:25:03;;;;;;;12.38;2.13;;;;;;;5.35;71.80;101917.16;5072319;28;20047;-81
2023/03/27 08:27:32;;;;;;;7.30;1.70;;;;;;;5.37;71.10;101921.56;5074029;28;20051;-81
2023/03/27 08:30:00;;;;;;;14.00;2.03;;;;;;;5.43;70.45;101926.81;5086023;28;20056;-81
2023/03/27 08:32:27;;;;;;;8.90;2.22;;;;;;;5.49;71.33;101925.16;5070837;28;20104;-81
2023/03/27 08:34:55;;;;;;;5.88;1.65;;;;;;;5.56;71.79;101933.03;5087268;28;20110;-81
2023/03/27 08:37:23;;;;;;;7.22;1.60;;;;;;;5.76;71.64;101934.91;5069061;28;20531;-81
2023/03/27 08:40:24;;;;;;;7.13;1.80;;;;;;;5.94;70.05;101926.31;5070238;28;20190;-81
2023/03/27 08:43:19;;;;;;;6.35;1.15;;;;;;;6.05;69.82;101931.69;5068616;28;20049;-82
2023/03/27 08:46:15;;;;;;;9.88;1.30;;;;;;;6.11;69.19;101926.47;5066838;28;20049;-82
2023/03/27 08:49:20;;;;;;;4.65;1.73;;;;;;;6.34;68.57;101939.66;5036761;28;20080;-81
2023/03/27 08:52:23;;;;;;;9.05;2.08;;;;;;;6.51;68.61;101934.50;5027691;28;20058;-83
2023/03/27 08:55:12;;;;;;;6.47;1.70;;;;;;;6.58;69.21;101940.66;5051417;28;20065;-82
2023/03/27 08:57:50;;;;;;;11.82;1.95;;;;;;;6.76;67.54;101937.25;5049563;28;20461;-82
2023/03/27 09:00:34;;;;;;;8.40;1.73;;;;;;;6.69;66.81;101959.03;5086478;28;20051;-82
2023/03/27 09:03:51;;;;;;;;;;;;;;;6.44;65.86;101961.56;5073117;28;20582;-81
2023/03/27 09:06:38;;;;;;;10.18;2.85;;;;;;;6.55;66.52;101973.84;5062737;28;19932;-78
2023/03/27 09:09:29;;;;;;;10.70;1.98;;;;;;;6.71;67.03;101964.31;5068630;28;20079;-80
2023/03/27 09:12:37;;;;;;;8.40;1.60;;;;;;;6.84;67.86;101952.97;5071141;28;20049;-80
2023/03/27 09:15:08;;;;;;;6.70;1.00;;;;;;;7.08;65.38;101964.41;5068678;28;20037;-80
2023/03/27 09:18:08;;;;;;;5.32;0.73;;;;;;;7.29;64.55;101966.16;5067357;28;20136;-80
2023/03/27 09:20:43;;;;;;;4.50;1.13;;;;;;;7.31;62.90;101961.81;5066054;28;20060;-80
2023/03/27 09:23:45;;;;;;;6.50;1.33;;;;;;;7.43;62.73;101982.81;5067806;28;20489;-79
2023/03/27 09:26:45;;;;;;;9.15;1.58;;;;;;;7.70;59.62;101972.34;5033270;28;20664;-79
2023/03/27 09:29:39;;;;;;;8.65;1.48;;;;;;;7.90;60.03;101961.81;5065186;28;20056;-81
2023/03/27 09:32:26;;;;;;;6.13;1.38;;;;;;;7.85;58.90;101959.19;5067608;28;20133;-80
2023/03/27 09:34:59;;;;;;;6.35;1.10;;;;;;;7.82;58.27;101964.47;5067834;28;20052;-80
2023/03/27 09:37:27;;;;;;;4.43;0.80;;;;;;;7.80;56.36;101986.31;5065128;28;20124;-80
2023/03/27 09:39:58;;;;;;;11.57;1.20;;;;;;;7.85;57.78;101985.44;5066064;28;20104;-79
2023/03/27 09:42:40;;;;;;;5.07;1.10;;;;;;;7.74;60.14;102008.19;5082755;28;20048;-80
2023/03/27 09:45:12;;;;;;;2.03;0.40;;;;;;;7.17;62.96;102008.13;5098997;28;20041;-79
2023/03/27 09:48:08;;;;;;;3.72;0.40;;;;;;;6.06;66.61;102028.53;5083228;28;20048;-79
2023/03/27 09:50:46;;;;;;;2.83;0.40;;;;;;;5.16;69.33;102013.72;5071049;28;20899;-79
2023/03/27 09:53:26;;;;;;;2.70;0.60;;;;;;;4.51;71.43;102018.19;5068100;28;20519;-79
2023/03/27 09:56:15;;;;;;;1.77;0.57;;;;;;;4.07;72.92;102024.47;5100153;28;20036;-79
2023/03/27 09:58:51;;;;;;;1.38;0.30;;;;;;;3.83;73.21;102022.34;5101949;28;20045;-80
2023/03/27 10:01:36;;;;;;;1.65;0.45;;;;;;;3.86;73.74;102031.13;5051748;28;20449;-80
2023/03/27 10:04:20;;;;;;;;;;;;;;;4.03;75.36;102023.53;5089317;28;20144;-80
2023/03/27 10:07:00;;;;;;;4.47;0.88;;;;;;;4.36;75.15;102031.91;5086876;28;19935;-80
2023/03/27 10:10:20;;;;;;;2.35;0.60;;;;;;;4.75;73.54;102015.00;5051152;28;20068;-80
2023/03/27 10:13:12;;;;;;;5.00;0.80;;;;;;;5.07;73.97;102021.47;5058990;28;20110;-81
2023/03/27 10:15:50;;;;;;;3.13;0.80;;;;;;;5.36;73.52;102020.91;5075450;28;20099;-80
2023/03/27 10:18:30;;;;;;;3.83;0.68;;;;;;;5.68;72.58;102013.38;5071738;28;20045;-80
2023/03/27 10:21:34;;;;;;;11.00;1.15;;;;;;;6.08;72.26;102010.22;5052654;28;20048;-80
2023/03/27 10:24:26;;;;;;;9.15;1.17;;;;;;;6.39;71.11;102005.19;5067615;28;20533;-81
2023/03/27 10:27:35;;;;;;;5.25;1.10;;;;;;;6.93;67.06;102002.81;5007647;28;20050;-80
2023/03/27 10:30:33;;;;;;;4.10;0.70;;;;;;;7.22;65.71;102011.63;5006722;28;20450;-81
2023/03/27 10:33:38;;;;;;;6.53;1.10;;;;;;;7.56;61.17;102009.06;5072628;28;20071;-80
2023/03/27 10:36:20;;;;;;;8.23;1.00;;;;;;;7.72;55.82;102020.47;5068555;28;20044;-79
2023/03/27 10:39:04;;;;;;;2.53;0.55;;;;;;;7.73;54.83;102033.59;5079897;28;20484;-79
2023/03/27 10:41:40;;;;;;;2.75;0.60;;;;;;;7.80;51.90;102018.72;5047470;28;20045;-79
2023/03/27 10:44:24;;;;;;;3.00;0.50;;;;;;;7.93;51.82;102020.47;5063596;28;20048;-80
2023/03/27 10:46:55;;;;;;;4.22;0.80;;;;;;;7.91;51.65;102018.69;5089735;28;20045;-80
2023/03/27 10:49:59;;;;;;;7.82;0.88;;;;;;;8.02;52.94;102026.59;5069015;28;20052;-80
2023/03/27 10:53:03;;;;;;;6.22;0.60;;;;;;;8.05;54.96;102043.22;5068637;28;20087;-79
2023/03/27 10:56:03;;;;;;;8.88;0.80;;;;;;;7.53;56.32;102045.81;5064902;28;20053;-79
2023/03/27 10:58:49;;;;;;;6.47;0.98;;;;;;;7.20;58.60;102047.47;5066612;28;20505;-80
2023/03/27 11:01:34;;;;;;;14.85;1.38;;;;;;;7.19;59.75;102057.09;5068552;28;20121;-78
2023/03/27 11:04:15;;;;;;;7.10;0.80;;;;;;;7.26;58.56;102053.63;5067595;28;20076;-80
2023/03/27 11:06:53;;;;;;;4.03;0.70;;;;;;;7.12;59.05;102082.41;5067143;28;20045;-80
2023/03/27 11:09:28;;;;;;;5.32;0.60;;;;;;;7.05;58.49;102078.03;5083429;28;20048;-80
2023/03/27 11:12:13;;;;;;;2.47;0.60;;;;;;;7.01;59.80;102075.38;5084578;28;20113;-81
2023/03/27 11:15:01;;;;;;;3.30;0.65;;;;;;;7.01;61.54;102071.00;5073721;28;20049;-79
2023/03/27 11:18:05;;;;;;;1.63;0.60;;;;;;;7.00;60.68;102074.50;5082069;28;20049;-81
2023/03/27 11:20:50;;;;;;;2.85;0.68;;;;;;;6.88;59.36;102070.09;5064677;28;20045;-80
2023/03/27 11:23:37;;;;;;;3.95;0.60;;;;;;;6.90;60.83;102080.56;5050180;28;20060;-79
2023/03/27 11:26:48;;;;;;;2.92;0.95;;;;;;;6.99;58.73;102097.22;5062168;28;20536;-78
2023/03/27 11:29:34;;;;;;;4.65;0.60;;;;;;;6.96;58.95;102086.72;5069637;28;20045;-80
2023/03/27 11:32:20;;;;;;;3.60;0.52;;;;;;;6.93;55.69;102091.09;5097866;28;20481;-79
2023/03/27 11:35:05;;;;;;;1.63;0.52;;;;;;;6.92;55.05;102095.44;5068940;28;20049;-79
2023/03/27 11:37:52;;;;;;;8.75;0.70;;;;;;;6.96;54.57;102081.47;5081916;28;20434;-80
2023/03/27 11:40:41;;;;;;;3.83;0.60;;;;;;;7.00;56.40;102084.97;5063769;28;20060;-80
2023/03/27 11:43:11;;;;;;;3.72;0.80;;;;;;;7.14;56.33;102099.03;5069242;28;20045;-78
2023/03/27 11:45:56;;;;;;;4.93;1.10;;;;;;;7.26;56.25;102082.47;5070153;28;20085;-78
2023/03/27 11:49:12;;;;;;;4.43;0.80;;;;;;;7.42;57.03;102069.41;5062006;28;20091;-79
2023/03/27 11:51:59;;;;;;;6.90;1.05;;;;;;;7.66;57.04;102086.06;5063808;28;20469;-79
2023/03/27 11:55:06;;;;;;;2.78;0.80;;;;;;;7.77;53.70;102086.97;5061550;28;20049;-79
2023/03/27 11:58:14;;;;;;;4.47;1.20;;;;;;;7.82;53.67;102087.84;5063290;28;20041;-78
2023/03/27 12:01:14;;;;;;;4.75;1.30;;;;;;;8.00;53.15;102092.22;5082362;28;20670;-78
2023/03/27 12:04:21;;;;;;;15.85;1.70;;;;;;;8.26;53.46;102082.59;5067805;28;20138;-77
2023/03/27 12:07:37;;;;;;;3.55;0.90;;;;;;;8.61;53.65;102090.44;5072210;28;20072;-78
2023/03/27 12:10:33;;;;;;;6.15;1.52;;;;;;;8.85;53.15;102101.78;5065803;28;20048;-78
2023/03/27 12:13:37;;;;;;;6.88;0.70;;;;;;;8.51;56.68;102136.91;5067059;28;20037;-76
2023/03/27 12:17:00;;;;;;;1.33;0.47;;;;;;;7.61;58.46;102126.31;5071023;28;20059;-77
2023/03/27 12:19:57;;;;;;;;;;;;;;;6.62;61.89;102128.47;5065310;28;20048;-77
2023/03/27 12:22:57;;;;;;;1.33;0.40;;;;;;;6.10;65.97;102110.59;5061754;28;19929;-79
2023/03/27 12:26:20;;;;;;;2.03;0.80;;;;;;;6.00;68.17;102114.88;5061633;28;20134;-79
2023/03/27 12:29:17;;;;;;;2.42;1.08;;;;;;;5.69;67.22;102142.47;5059475;28;20048;-78
2023/03/27 12:32:06;;;;;;;5.75;0.75;;;;;;;5.40;68.86;102129.94;5064189;28;20390;-78
2023/03/27 12:34:57;;;;;;;2.53;0.88;;;;;;;5.21;69.03;102100.06;5063659;28;20132;-79
2023/03/27 12:37:43;;;;;;;2.88;0.77;;;;;;;5.16;66.45;102089.53;5061598;28;20107;-79